Time;durP1;ratioP1;P1;durP2;ratioP2;P2;SDS_P1;SDS_P2;PMS_P1;PMS_P2;Temp;Humidity;BMP_temperature;BMP_pressure;BME280_temperature;BME280_humidity;BME280_pressure;Samples;Min_cycle;Max_cycle;Signal;HPM_P1;HPM_P2
2021/04/02 00:00:19;;;;;;;5.15;1.40;;;26.90;95.20;;;;;;5038813;28;20487;-81
2021/04/02 00:02:46;;;;;;;4.82;1.35;;;27.90;91.60;;;;;;5045596;28;20801;-81
2021/04/02 00:05:18;;;;;;;5.43;1.55;;;27.90;90.00;;;;;;5041774;28;20452;-81
2021/04/02 00:07:45;;;;;;;4.57;1.25;;;27.10;90.10;;;;;;5036710;28;20396;-81
2021/04/02 00:10:21;;;;;;;2.28;1.10;;;26.50;91.90;;;;;;5039788;28;20405;-82
2021/04/02 00:12:48;;;;;;;2.53;1.20;;;25.90;95.30;;;;;;5057686;28;20400;-82
2021/04/02 00:15:20;;;;;;;5.53;1.75;;;26.00;94.30;;;;;;5032954;28;20404;-82
2021/04/02 00:17:47;;;;;;;3.83;1.30;;;26.20;95.40;;;;;;5044390;28;20432;-81
2021/04/02 00:20:21;;;;;;;4.22;1.40;;;26.50;96.30;;;;;;5034901;28;20781;-82
2021/04/02 00:22:48;;;;;;;5.63;1.67;;;27.20;93.80;;;;;;5053309;28;20960;-82
2021/04/02 00:25:15;;;;;;;4.77;1.30;;;28.00;91.90;;;;;;5045260;28;20387;-81
2021/04/02 00:27:45;;;;;;;3.15;1.30;;;28.20;92.40;;;;;;5034018;28;20416;-81
2021/04/02 00:30:21;;;;;;;2.47;1.00;;;27.80;90.10;;;;;;5031060;28;20374;-81
2021/04/02 00:32:48;;;;;;;4.45;1.45;;;27.30;92.20;;;;;;5037727;28;20453;-81
2021/04/02 00:35:15;;;;;;;3.75;1.30;;;26.90;91.70;;;;;;5033514;28;20393;-82
2021/04/02 00:37:42;;;;;;;3.50;1.30;;;26.30;92.40;;;;;;5035198;28;20397;-82
2021/04/02 00:40:24;;;;;;;2.95;1.17;;;26.00;93.30;;;;;;5039973;28;20456;-80
2021/04/02 00:42:51;;;;;;;2.55;1.30;;;25.50;93.50;;;;;;5030769;28;20400;-80
2021/04/02 00:45:20;;;;;;;2.08;1.08;;;25.70;94.70;;;;;;5030793;28;20559;-80
2021/04/02 00:47:51;;;;;;;3.70;1.13;;;26.10;93.30;;;;;;5047607;28;20407;-80
2021/04/02 00:50:25;;;;;;;3.83;1.05;;;26.60;93.60;;;;;;5050994;28;20368;-80
2021/04/02 00:52:53;;;;;;;2.70;1.58;;;26.80;91.20;;;;;;5047095;28;20392;-82
2021/04/02 00:55:20;;;;;;;3.83;1.20;;;25.80;94.40;;;;;;5044493;28;20426;-80
2021/04/02 00:57:47;;;;;;;3.47;1.10;;;25.70;94.60;;;;;;5047286;28;20394;-81
2021/04/02 01:00:15;;;;;;;3.65;1.30;;;26.30;95.00;;;;;;5043518;28;20443;-81
2021/04/02 01:02:43;;;;;;;5.28;1.20;;;27.10;92.40;;;;;;5046703;28;20449;-81
2021/04/02 01:05:17;;;;;;;4.25;1.05;;;27.90;89.40;;;;;;5043564;28;20485;-80
2021/04/02 01:07:51;;;;;;;2.55;1.00;;;28.60;89.40;;;;;;5041132;28;20382;-80
2021/04/02 01:10:19;;;;;;;2.53;0.90;;;28.30;86.90;;;;;;5040521;28;20412;-80
2021/04/02 01:12:47;;;;;;;5.05;1.10;;;27.80;91.20;;;;;;5033471;28;21041;-81
2021/04/02 01:15:42;;;;;;;3.33;1.10;;;27.00;91.60;;;;;;5032577;28;20404;-82
2021/04/02 01:18:38;;;;;;;2.55;0.90;;;26.10;92.60;;;;;;5028708;28;20373;-82
2021/04/02 01:21:21;;;;;;;4.20;1.20;;;25.10;93.30;;;;;;5024323;28;20415;-82
2021/04/02 01:24:17;;;;;;;3.63;1.00;;;24.70;97.00;;;;;;5037451;28;20516;-85
2021/04/02 01:27:17;;;;;;;4.97;1.30;;;24.40;96.00;;;;;;5040851;28;20396;-81
2021/04/02 01:29:46;;;;;;;4.20;1.20;;;24.40;99.20;;;;;;5046955;28;20901;-81
2021/04/02 01:32:21;;;;;;;4.53;1.25;;;24.30;99.80;;;;;;5064630;28;20426;-80
2021/04/02 01:34:50;;;;;;;3.95;0.95;;;24.40;99.30;;;;;;5046667;28;20380;-80
2021/04/02 01:37:47;;;;;;;5.15;1.13;;;24.30;97.40;;;;;;5039744;28;21056;-80
2021/04/02 01:40:17;;;;;;;3.33;1.17;;;24.10;98.50;;;;;;5024342;28;20428;-81
2021/04/02 01:42:46;;;;;;;5.20;1.20;;;24.00;96.60;;;;;;5035739;28;20450;-80
2021/04/02 01:45:16;;;;;;;4.47;1.40;;;23.90;97.50;;;;;;5049295;28;20565;-83
2021/04/02 01:47:43;;;;;;;3.38;1.08;;;23.80;97.20;;;;;;5064767;28;20483;-82
2021/04/02 01:50:15;;;;;;;4.63;1.40;;;23.60;98.20;;;;;;5050345;28;20383;-82
2021/04/02 01:52:44;;;;;;;2.80;1.20;;;23.70;99.20;;;;;;5044010;28;20403;-82
2021/04/02 01:55:13;;;;;;;4.18;1.20;;;23.80;99.20;;;;;;5059811;28;20414;-81
2021/04/02 01:57:42;;;;;;;3.95;1.17;;;23.90;98.80;;;;;;5037857;28;20400;-82
2021/04/02 02:00:14;;;;;;;2.53;1.20;;;23.90;97.40;;;;;;5040725;28;20482;-82
2021/04/02 02:02:43;;;;;;;4.10;1.33;;;23.70;97.50;;;;;;5049096;28;20574;-82
2021/04/02 02:05:11;;;;;;;3.47;1.30;;;23.50;98.30;;;;;;5029207;28;20824;-81
2021/04/02 02:07:44;;;;;;;5.25;1.40;;;23.30;99.20;;;;;;5034868;28;20448;-81
2021/04/02 02:10:13;;;;;;;2.78;1.30;;;23.30;99.90;;;;;;5030934;28;20468;-82
2021/04/02 02:12:43;;;;;;;3.50;1.30;;;23.30;98.50;;;;;;5032436;28;20476;-82
2021/04/02 02:15:15;;;;;;;3.13;1.30;;;23.20;98.70;;;;;;5047086;28;20421;-81
2021/04/02 02:17:57;;;;;;;3.50;1.35;;;23.00;99.70;;;;;;5042455;28;20411;-81
2021/04/02 02:20:26;;;;;;;2.08;1.13;;;23.00;99.50;;;;;;5043085;28;20407;-82
2021/04/02 02:22:58;;;;;;;4.00;1.30;;;23.00;99.90;;;;;;5048930;28;20375;-81
2021/04/02 02:25:27;;;;;;;4.13;1.23;;;23.00;99.90;;;;;;5048216;28;20965;-81
2021/04/02 02:27:55;;;;;;;4.13;1.30;;;22.90;99.90;;;;;;5038944;28;20400;-81
2021/04/02 02:30:26;;;;;;;2.77;1.10;;;22.90;99.90;;;;;;5059240;28;20912;-81
2021/04/02 02:32:54;;;;;;;2.22;1.20;;;22.70;99.90;;;;;;5033731;28;20393;-81
2021/04/02 02:35:21;;;;;;;3.22;1.27;;;22.60;99.90;;;;;;5038966;28;20403;-81
2021/04/02 02:37:50;;;;;;;2.85;1.45;;;22.60;99.70;;;;;;5048667;28;20429;-83
2021/04/02 02:40:32;;;;;;;3.60;1.30;;;22.70;99.90;;;;;;5043062;28;20451;-81
2021/04/02 02:43:00;;;;;;;2.83;1.35;;;22.80;99.90;;;;;;5042802;28;20800;-81
2021/04/02 02:45:29;;;;;;;2.65;1.20;;;22.80;99.90;;;;;;5042966;28;20397;-81
2021/04/02 02:47:56;;;;;;;3.60;1.30;;;22.60;99.90;;;;;;5045998;28;20399;-79
2021/04/02 02:50:31;;;;;;;2.85;1.08;;;22.50;99.90;;;;;;5040507;28;20914;-81
2021/04/02 02:53:01;;;;;;;4.75;1.60;;;22.40;99.90;;;;;;5048456;28;20470;-79
2021/04/02 02:55:31;;;;;;;3.38;1.40;;;22.40;99.90;;;;;;5052142;28;20399;-80
2021/04/02 02:58:00;;;;;;;2.85;1.40;;;22.60;99.90;;;;;;5038337;28;20491;-80
2021/04/02 03:00:32;;;;;;;3.03;1.20;;;22.80;99.90;;;;;;5049115;28;20469;-81
2021/04/02 03:03:04;;;;;;;3.17;1.15;;;23.00;99.70;;;;;;5034643;28;20395;-80
2021/04/02 03:05:32;;;;;;;3.40;1.40;;;22.90;99.90;;;;;;5046138;28;20430;-82
2021/04/02 03:08:05;;;;;;;3.05;1.42;;;22.80;99.90;;;;;;5051835;28;20383;-81
2021/04/02 03:10:35;;;;;;;3.58;1.10;;;22.80;99.90;;;;;;5042795;28;20886;-80
2021/04/02 03:13:04;;;;;;;2.15;1.20;;;22.80;99.90;;;;;;5036787;28;20878;-80
2021/04/02 03:15:33;;;;;;;3.28;1.30;;;22.90;99.90;;;;;;5042152;28;20388;-79
2021/04/02 03:18:09;;;;;;;3.55;1.33;;;23.00;99.90;;;;;;5053130;28;20457;-80
2021/04/02 03:20:38;;;;;;;3.20;1.55;;;23.10;99.90;;;;;;5036220;28;20926;-79
2021/04/02 03:23:06;;;;;;;3.78;1.48;;;23.20;99.90;;;;;;5059870;28;20496;-80
2021/04/02 03:25:35;;;;;;;4.93;1.50;;;23.20;99.90;;;;;;5037730;28;21199;-80
2021/04/02 03:28:04;;;;;;;4.22;1.40;;;23.30;99.90;;;;;;5061066;28;20760;-79
2021/04/02 03:30:32;;;;;;;3.47;1.17;;;23.30;99.90;;;;;;5039341;28;20858;-80
2021/04/02 03:33:25;;;;;;;2.75;1.45;;;23.40;99.60;;;;;;5043063;28;20408;-80
2021/04/02 03:35:57;;;;;;;3.53;1.48;;;23.60;99.90;;;;;;5040498;28;20393;-78
2021/04/02 03:38:26;;;;;;;2.90;1.30;;;23.70;99.90;;;;;;5032829;28;20745;-79
2021/04/02 03:40:55;;;;;;;3.38;1.33;;;23.80;99.80;;;;;;5031733;28;20405;-79
2021/04/02 03:43:25;;;;;;;4.15;1.52;;;23.80;99.90;;;;;;5031563;28;20959;-80
2021/04/02 03:45:53;;;;;;;3.95;1.40;;;23.80;98.40;;;;;;5031595;28;20467;-79
2021/04/02 03:48:21;;;;;;;3.85;1.33;;;23.70;99.80;;;;;;5046063;28;20403;-79
2021/04/02 03:50:53;;;;;;;8.07;1.63;;;23.60;99.90;;;;;;5052061;28;20900;-79
2021/04/02 03:53:34;;;;;;;4.03;1.40;;;23.50;99.60;;;;;;5051020;28;20429;-79
2021/04/02 03:56:03;;;;;;;3.75;1.25;;;23.30;99.00;;;;;;5051315;28;20391;-79
2021/04/02 03:58:32;;;;;;;4.28;1.40;;;23.10;99.90;;;;;;5035191;28;20479;-79
2021/04/02 04:01:16;;;;;;;2.83;1.37;;;23.00;99.90;;;;;;5031299;28;20408;-80
2021/04/02 04:03:47;;;;;;;2.50;1.30;;;22.90;99.90;;;;;;5031536;28;20369;-79
2021/04/02 04:06:23;;;;;;;2.55;1.30;;;22.90;99.90;;;;;;5031613;28;20412;-79
2021/04/02 04:08:54;;;;;;;2.70;1.30;;;23.00;99.90;;;;;;5048084;28;20388;-80
2021/04/02 04:11:24;;;;;;;3.17;1.17;;;22.90;99.90;;;;;;5051151;28;20451;-79
2021/04/02 04:13:53;;;;;;;3.35;1.30;;;22.90;99.70;;;;;;5051163;28;20857;-79
2021/04/02 04:16:23;;;;;;;2.05;1.08;;;23.00;99.50;;;;;;5051273;28;20375;-79
2021/04/02 04:18:58;;;;;;;1.60;1.13;;;23.20;99.40;;;;;;5065168;28;20384;-79
2021/04/02 04:21:30;;;;;;;2.47;1.27;;;23.50;99.90;;;;;;5051486;28;20426;-79
2021/04/02 04:24:02;;;;;;;4.18;1.40;;;23.60;99.90;;;;;;5050463;28;20372;-79
2021/04/02 04:26:30;;;;;;;3.30;1.30;;;23.60;99.60;;;;;;5050748;28;20399;-79
2021/04/02 04:28:59;;;;;;;3.80;1.20;;;23.30;99.40;;;;;;5066003;28;20384;-81
2021/04/02 04:31:26;;;;;;;2.80;1.30;;;22.90;99.90;;;;;;5066226;28;20479;-79
2021/04/02 04:33:56;;;;;;;4.50;1.67;;;22.70;99.90;;;;;;5050765;28;20801;-79
2021/04/02 04:36:25;;;;;;;3.65;1.30;;;22.60;99.90;;;;;;5050500;28;20376;-79
2021/04/02 04:38:54;;;;;;;2.70;1.20;;;22.70;99.90;;;;;;5065373;28;21322;-79
2021/04/02 04:41:23;;;;;;;3.20;1.20;;;22.80;99.90;;;;;;5050496;28;20404;-79
2021/04/02 04:43:52;;;;;;;3.17;1.40;;;22.90;99.90;;;;;;5065792;28;20384;-79
2021/04/02 04:46:19;;;;;;;2.45;1.20;;;22.80;99.90;;;;;;5050439;28;20384;-79
2021/04/02 04:48:47;;;;;;;3.35;1.35;;;22.70;99.90;;;;;;5034156;28;20416;-78
2021/04/02 04:51:19;;;;;;;4.03;1.20;;;22.60;99.90;;;;;;5029848;28;20378;-80
2021/04/02 04:53:52;;;;;;;2.38;1.10;;;22.60;99.90;;;;;;5029678;28;20385;-80
2021/04/02 04:56:19;;;;;;;4.35;1.38;;;22.60;99.90;;;;;;5030312;28;20487;-82
2021/04/02 04:58:50;;;;;;;4.03;1.25;;;22.70;99.90;;;;;;5043716;28;20389;-81
2021/04/02 05:01:18;;;;;;;4.80;1.30;;;22.80;99.90;;;;;;5049954;28;20410;-80
2021/04/02 05:03:46;;;;;;;2.83;1.02;;;22.90;99.90;;;;;;5065499;28;20879;-81
2021/04/02 05:06:16;;;;;;;3.10;1.40;;;22.90;99.90;;;;;;5065598;28;20479;-80
2021/04/02 05:08:45;;;;;;;2.63;1.00;;;22.90;99.90;;;;;;5065359;28;20380;-80
2021/04/02 05:11:19;;;;;;;7.50;1.33;;;22.90;99.90;;;;;;5048892;28;20917;-81
2021/04/02 05:13:48;;;;;;;3.85;1.23;;;22.90;99.90;;;;;;5065143;28;20449;-80
2021/04/02 05:16:17;;;;;;;2.80;1.23;;;22.90;99.90;;;;;;5048685;28;20830;-80
2021/04/02 05:18:47;;;;;;;4.68;1.50;;;22.90;99.90;;;;;;5050169;28;20463;-81
2021/04/02 05:21:14;;;;;;;2.35;1.00;;;22.90;99.90;;;;;;5065016;28;20415;-80
2021/04/02 05:23:41;;;;;;;4.18;1.10;;;22.90;99.90;;;;;;5048730;28;20383;-80
2021/04/02 05:26:13;;;;;;;3.50;1.20;;;22.80;99.90;;;;;;5049921;28;20425;-79
2021/04/02 05:28:40;;;;;;;3.72;1.42;;;22.70;99.90;;;;;;5038273;28;20416;-80
2021/04/02 05:31:08;;;;;;;2.50;1.20;;;22.70;99.90;;;;;;5029982;28;20375;-80
2021/04/02 05:33:36;;;;;;;2.90;1.02;;;22.70;99.90;;;;;;5029795;28;20468;-80
2021/04/02 05:36:03;;;;;;;3.88;1.10;;;22.70;99.90;;;;;;5029872;28;20378;-80
2021/04/02 05:38:30;;;;;;;2.60;1.08;;;22.60;99.90;;;;;;5037478;28;20437;-80
2021/04/02 05:41:01;;;;;;;2.88;0.90;;;22.60;99.90;;;;;;5049507;28;20478;-80
2021/04/02 05:43:37;;;;;;;3.03;1.10;;;22.50;99.90;;;;;;5048017;28;20476;-80
2021/04/02 05:46:04;;;;;;;3.45;1.00;;;22.50;99.90;;;;;;5062258;28;20804;-81
2021/04/02 05:48:32;;;;;;;2.20;1.10;;;22.30;99.90;;;;;;5028827;28;20385;-80
2021/04/02 05:51:00;;;;;;;3.95;1.00;;;22.30;99.90;;;;;;5028629;28;20461;-80
2021/04/02 05:53:29;;;;;;;4.55;1.05;;;22.20;99.90;;;;;;5044645;28;20833;-80
2021/04/02 05:56:00;;;;;;;5.65;1.10;;;22.20;99.90;;;;;;5029441;28;20961;-80
2021/04/02 05:58:28;;;;;;;3.95;1.23;;;22.20;99.90;;;;;;5029607;28;20852;-81
2021/04/02 06:00:55;;;;;;;2.78;1.05;;;22.20;99.90;;;;;;5029493;28;20476;-81
2021/04/02 06:03:23;;;;;;;3.67;1.10;;;22.10;99.90;;;;;;5029369;28;20377;-81
2021/04/02 06:05:50;;;;;;;3.53;1.27;;;22.10;99.90;;;;;;5029390;28;20455;-81
2021/04/02 06:08:19;;;;;;;3.63;1.17;;;22.10;99.90;;;;;;5046254;28;20387;-81
2021/04/02 06:10:46;;;;;;;4.38;1.20;;;22.10;99.90;;;;;;5034648;28;20382;-80
2021/04/02 06:13:13;;;;;;;3.72;1.00;;;22.10;99.90;;;;;;5029008;28;20514;-81
2021/04/02 06:15:40;;;;;;;3.55;1.33;;;22.10;99.90;;;;;;5044295;28;20385;-79
2021/04/02 06:18:12;;;;;;;3.75;1.00;;;22.00;99.90;;;;;;5028986;28;20361;-81
2021/04/02 06:20:46;;;;;;;3.70;0.95;;;22.00;99.90;;;;;;5047745;28;20403;-78
2021/04/02 06:23:27;;;;;;;2.33;1.15;;;21.90;99.90;;;;;;5042244;28;20414;-84
2021/04/02 06:26:04;;;;;;;4.10;1.23;;;21.90;99.90;;;;;;5038260;28;20762;-81
2021/04/02 06:28:37;;;;;;;3.58;1.02;;;21.90;99.90;;;;;;5046750;28;20584;-81
2021/04/02 06:31:10;;;;;;;2.22;1.00;;;21.80;99.90;;;;;;5042168;28;20748;-81
2021/04/02 06:34:04;;;;;;;2.90;1.00;;;21.70;99.90;;;;;;5045285;28;20402;-82
2021/04/02 06:36:32;;;;;;;2.88;1.20;;;21.60;99.90;;;;;;5041822;28;20391;-81
2021/04/02 06:39:06;;;;;;;4.07;1.35;;;21.60;99.90;;;;;;5036446;28;20425;-78
2021/04/02 06:41:36;;;;;;;3.67;1.20;;;21.50;99.90;;;;;;5027471;28;20413;-81
2021/04/02 06:44:06;;;;;;;3.67;1.00;;;21.40;99.90;;;;;;5048208;28;20387;-80
2021/04/02 06:46:35;;;;;;;3.70;1.10;;;21.40;99.90;;;;;;5037422;28;20485;-81
2021/04/02 06:49:19;;;;;;;3.58;1.05;;;21.40;99.90;;;;;;5037565;28;20428;-80
2021/04/02 06:51:52;;;;;;;2.63;1.02;;;21.30;99.90;;;;;;5029072;28;20382;-80
2021/04/02 06:54:24;;;;;;;2.78;1.02;;;21.30;99.90;;;;;;5037991;28;20411;-79
2021/04/02 06:56:56;;;;;;;4.15;1.08;;;21.20;99.90;;;;;;5042671;28;20818;-80
2021/04/02 06:59:26;;;;;;;3.15;1.00;;;21.10;99.90;;;;;;5045355;28;20870;-80
2021/04/02 07:01:55;;;;;;;3.60;1.00;;;21.10;99.90;;;;;;5034145;28;20412;-80
2021/04/02 07:04:24;;;;;;;3.67;1.10;;;21.00;99.90;;;;;;5047707;28;20459;-80
2021/04/02 07:06:55;;;;;;;4.05;0.80;;;21.00;99.90;;;;;;5048554;28;20471;-80
2021/04/02 07:09:25;;;;;;;4.35;0.80;;;20.90;99.90;;;;;;5042747;28;20398;-80
2021/04/02 07:11:59;;;;;;;3.05;0.90;;;20.90;99.90;;;;;;5046125;28;20375;-81
2021/04/02 07:14:27;;;;;;;3.45;0.80;;;20.90;99.90;;;;;;5062520;28;20767;-80
2021/04/02 07:16:55;;;;;;;4.97;1.10;;;20.80;99.90;;;;;;5045047;28;20480;-80
2021/04/02 07:19:22;;;;;;;2.30;1.17;;;20.70;99.90;;;;;;5045424;28;20467;-79
2021/04/02 07:21:50;;;;;;;6.27;1.57;;;20.60;99.90;;;;;;5062264;28;20439;-79
2021/04/02 07:24:19;;;;;;;2.47;1.00;;;20.50;99.90;;;;;;5036952;28;20376;-79
2021/04/02 07:26:48;;;;;;;3.07;0.83;;;20.40;99.90;;;;;;5045451;28;20469;-80
2021/04/02 07:29:17;;;;;;;3.85;1.10;;;20.40;99.90;;;;;;5043213;28;20392;-79
2021/04/02 07:31:46;;;;;;;3.72;0.93;;;20.30;99.90;;;;;;5045778;28;20449;-80
2021/04/02 07:34:15;;;;;;;3.70;1.10;;;20.30;99.90;;;;;;5048957;28;20925;-80
2021/04/02 07:36:42;;;;;;;2.25;0.90;;;20.20;99.90;;;;;;5063101;28;20462;-80
2021/04/02 07:39:09;;;;;;;2.35;1.00;;;20.20;99.90;;;;;;5040273;28;20392;-79
2021/04/02 07:41:48;;;;;;;4.13;1.75;;;20.10;99.90;;;;;;5062635;28;20439;-79
2021/04/02 07:44:17;;;;;;;5.03;3.72;;;20.00;99.90;;;;;;5041715;28;21018;-79
2021/04/02 07:47:08;;;;;;;7.38;5.43;;;20.00;99.90;;;;;;5031667;28;20868;-80
2021/04/02 07:50:02;;;;;;;7.03;4.38;;;19.90;99.90;;;;;;5051734;28;20383;-79
2021/04/02 07:52:40;;;;;;;4.15;1.67;;;19.80;99.90;;;;;;5055145;28;20953;-80
2021/04/02 07:55:17;;;;;;;7.40;2.20;;;19.70;99.90;;;;;;5046505;28;20482;-79
2021/04/02 07:57:55;;;;;;;6.05;2.08;;;19.60;99.90;;;;;;5044721;28;20397;-79
2021/04/02 08:00:27;;;;;;;4.13;2.33;;;19.50;99.90;;;;;;5045992;28;20403;-79
2021/04/02 08:03:16;;;;;;;8.05;2.00;;;19.50;99.90;;;;;;5056808;28;20389;-79
2021/04/02 08:05:58;;;;;;;3.67;1.70;;;19.40;99.90;;;;;;5031256;28;20417;-79
2021/04/02 08:08:26;;;;;;;4.68;1.45;;;19.30;99.90;;;;;;5031584;28;20369;-80
2021/04/02 08:11:20;;;;;;;4.88;1.40;;;19.30;99.90;;;;;;5040778;28;20741;-79
2021/04/02 08:13:55;;;;;;;2.67;1.27;;;19.20;99.90;;;;;;5024447;28;20441;-79
2021/04/02 08:16:47;;;;;;;3.90;1.45;;;19.20;99.90;;;;;;5065719;28;20382;-79
2021/04/02 08:19:17;;;;;;;5.60;2.28;;;19.20;99.90;;;;;;5042084;28;20804;-80
2021/04/02 08:21:54;;;;;;;4.55;1.75;;;19.00;99.90;;;;;;5047834;28;20391;-80
2021/04/02 08:24:27;;;;;;;6.28;1.77;;;19.00;99.90;;;;;;5039709;28;20399;-79
2021/04/02 08:26:55;;;;;;;4.63;1.55;;;18.90;99.90;;;;;;5047301;28;20415;-86
2021/04/02 08:29:24;;;;;;;3.35;1.38;;;18.80;99.90;;;;;;5049639;28;20498;-80
2021/04/02 08:31:57;;;;;;;4.05;1.25;;;18.70;99.90;;;;;;5044306;28;21178;-80
2021/04/02 08:34:27;;;;;;;3.30;1.50;;;18.70;99.90;;;;;;5050141;28;20483;-80
2021/04/02 08:36:56;;;;;;;3.30;1.20;;;18.60;99.90;;;;;;5037521;28;20884;-80
2021/04/02 08:39:25;;;;;;;2.10;1.02;;;18.60;99.90;;;;;;5040705;28;20451;-80
2021/04/02 08:41:58;;;;;;;3.40;1.30;;;18.50;99.90;;;;;;5063043;28;20878;-80
2021/04/02 08:44:45;;;;;;;4.10;1.35;;;18.50;99.90;;;;;;5047538;28;20466;-80
2021/04/02 08:47:15;;;;;;;5.03;1.27;;;18.50;99.90;;;;;;5049791;28;20408;-79
2021/04/02 08:49:54;;;;;;;3.28;1.27;;;18.50;99.90;;;;;;5044714;28;20385;-79
2021/04/02 08:52:26;;;;;;;3.05;1.10;;;18.50;99.90;;;;;;5047789;28;20399;-79
2021/04/02 08:54:59;;;;;;;2.13;1.07;;;18.40;99.90;;;;;;5045185;28;20770;-80
2021/04/02 08:57:28;;;;;;;3.72;1.15;;;18.40;99.90;;;;;;5030850;28;20378;-79
2021/04/02 08:59:57;;;;;;;3.60;1.20;;;18.30;99.90;;;;;;5030629;28;20390;-80
2021/04/02 09:02:29;;;;;;;3.33;1.00;;;18.30;99.90;;;;;;5030393;28;20753;-79
2021/04/02 09:04:57;;;;;;;4.13;0.93;;;18.30;99.90;;;;;;5044013;28;20387;-79
2021/04/02 09:07:24;;;;;;;2.78;1.08;;;18.20;99.90;;;;;;5044591;28;20414;-79
2021/04/02 09:09:51;;;;;;;3.00;1.20;;;18.20;99.90;;;;;;5047210;28;20402;-79
2021/04/02 09:12:20;;;;;;;6.32;1.73;;;18.10;99.90;;;;;;5040280;28;20387;-80
2021/04/02 09:14:54;;;;;;;4.63;1.20;;;18.10;99.90;;;;;;5042744;28;20396;-80
2021/04/02 09:17:29;;;;;;;2.15;1.23;;;18.10;99.90;;;;;;5043159;28;20751;-79
2021/04/02 09:19:56;;;;;;;2.53;1.20;;;18.00;99.90;;;;;;5042783;28;20410;-80
2021/04/02 09:22:24;;;;;;;3.33;1.10;;;18.10;99.90;;;;;;5041449;28;20406;-79
2021/04/02 09:24:53;;;;;;;4.05;1.20;;;18.00;99.90;;;;;;5038745;28;20434;-80
2021/04/02 09:27:25;;;;;;;3.97;1.25;;;18.00;99.90;;;;;;5047701;28;20416;-79
2021/04/02 09:30:05;;;;;;;3.83;1.37;;;18.10;99.90;;;;;;5046729;28;20398;-79
2021/04/02 09:32:42;;;;;;;4.10;1.08;;;18.00;99.90;;;;;;5035845;28;20400;-80
2021/04/02 09:35:10;;;;;;;4.22;1.30;;;18.00;99.90;;;;;;5044459;28;20371;-79
2021/04/02 09:37:38;;;;;;;2.40;1.10;;;18.00;99.90;;;;;;5041864;28;20464;-80
2021/04/02 09:40:08;;;;;;;2.88;0.93;;;17.90;99.90;;;;;;5043902;28;20465;-79
2021/04/02 09:42:37;;;;;;;3.80;1.23;;;17.90;99.90;;;;;;5033854;28;20986;-79
2021/04/02 09:45:10;;;;;;;3.50;1.23;;;17.90;99.90;;;;;;5043970;28;20468;-80
2021/04/02 09:47:48;;;;;;;3.70;1.17;;;17.90;99.90;;;;;;5032300;28;20549;-80
2021/04/02 09:50:17;;;;;;;3.83;1.08;;;17.90;99.90;;;;;;5035850;28;20407;-79
2021/04/02 09:52:45;;;;;;;3.15;1.20;;;17.90;99.90;;;;;;5042851;28;20388;-79
2021/04/02 09:55:14;;;;;;;3.95;1.23;;;17.80;99.90;;;;;;5035806;28;20457;-79
2021/04/02 09:57:41;;;;;;;3.70;1.10;;;17.80;99.90;;;;;;5044590;28;20440;-80
2021/04/02 10:00:13;;;;;;;3.08;1.40;;;17.80;99.90;;;;;;5059525;28;20498;-79
2021/04/02 10:02:41;;;;;;;3.08;1.15;;;17.80;99.90;;;;;;5031247;28;20388;-80
2021/04/02 10:05:09;;;;;;;2.50;1.00;;;17.70;99.90;;;;;;5060229;28;20445;-80
2021/04/02 10:07:36;;;;;;;4.70;1.45;;;17.70;99.90;;;;;;5045984;28;20367;-81
2021/04/02 10:10:05;;;;;;;5.18;1.30;;;17.70;99.90;;;;;;5056159;28;20422;-80
2021/04/02 10:12:32;;;;;;;4.75;1.20;;;17.70;99.90;;;;;;5031192;28;20474;-80
2021/04/02 10:14:59;;;;;;;3.65;1.50;;;17.70;99.90;;;;;;5029430;28;20408;-81
2021/04/02 10:17:28;;;;;;;2.40;1.15;;;17.60;99.90;;;;;;5039070;28;20384;-81
2021/04/02 10:19:55;;;;;;;4.80;1.20;;;17.60;99.90;;;;;;5036395;28;20412;-81
2021/04/02 10:22:23;;;;;;;5.03;1.20;;;17.60;99.90;;;;;;5038691;28;20427;-80
2021/04/02 10:24:50;;;;;;;4.13;1.47;;;17.50;99.90;;;;;;5036360;28;20899;-80
2021/04/02 10:27:17;;;;;;;4.70;1.38;;;17.50;99.90;;;;;;5029330;28;20411;-79
2021/04/02 10:29:44;;;;;;;4.75;1.52;;;17.50;99.90;;;;;;5026289;28;20446;-80
2021/04/02 10:32:11;;;;;;;5.53;1.60;;;17.50;99.90;;;;;;5034007;28;20488;-80
2021/04/02 10:34:38;;;;;;;3.92;1.45;;;17.50;99.90;;;;;;5040074;28;20388;-80
2021/04/02 10:37:05;;;;;;;4.75;1.35;;;17.50;99.90;;;;;;5044348;28;20423;-79
2021/04/02 10:39:33;;;;;;;3.37;1.40;;;17.50;99.90;;;;;;5034140;28;20401;-81
2021/04/02 10:42:00;;;;;;;6.07;1.55;;;17.40;99.90;;;;;;5040017;28;20419;-80
2021/04/02 10:44:27;;;;;;;4.55;1.35;;;17.40;99.90;;;;;;5040576;28;20389;-80
2021/04/02 10:46:55;;;;;;;5.78;1.52;;;17.40;99.90;;;;;;5049005;28;20409;-79
2021/04/02 10:49:22;;;;;;;4.97;1.40;;;17.40;99.90;;;;;;5028703;28;20381;-80
2021/04/02 10:51:50;;;;;;;5.33;1.67;;;17.30;99.90;;;;;;5040274;28;20404;-79
2021/04/02 10:54:17;;;;;;;4.25;1.55;;;17.30;99.90;;;;;;5048594;28;20376;-79
2021/04/02 10:56:44;;;;;;;4.93;1.50;;;17.30;99.90;;;;;;5048514;28;20379;-79
2021/04/02 10:59:12;;;;;;;3.78;1.35;;;17.30;99.90;;;;;;5030735;28;20382;-79
2021/04/02 11:01:39;;;;;;;3.60;1.40;;;17.20;99.90;;;;;;5042992;28;20785;-79
2021/04/02 11:04:07;;;;;;;3.80;1.43;;;17.20;99.90;;;;;;5040116;28;20420;-80
2021/04/02 11:06:34;;;;;;;2.55;1.35;;;17.20;99.90;;;;;;5045271;28;20917;-79
2021/04/02 11:09:01;;;;;;;3.05;1.20;;;17.20;99.90;;;;;;5048525;28;20384;-78
2021/04/02 11:11:27;;;;;;;2.35;1.20;;;17.20;99.90;;;;;;5040125;28;20428;-78
2021/04/02 11:13:55;;;;;;;2.50;1.20;;;17.20;99.90;;;;;;5046827;28;20412;-79
2021/04/02 11:16:22;;;;;;;4.10;1.23;;;17.20;99.90;;;;;;5034943;28;20696;-79
2021/04/02 11:18:48;;;;;;;3.63;1.10;;;17.20;99.90;;;;;;5048798;28;20732;-81
2021/04/02 11:21:16;;;;;;;2.70;1.05;;;17.20;99.90;;;;;;5035570;28;20768;-81
2021/04/02 11:23:43;;;;;;;3.08;1.00;;;17.20;99.90;;;;;;5038533;28;20401;-81
2021/04/02 11:26:12;;;;;;;4.72;1.27;;;17.10;99.90;;;;;;5036367;28;20449;-81
2021/04/02 11:28:39;;;;;;;3.30;1.10;;;17.10;99.90;;;;;;5034634;28;20389;-80
2021/04/02 11:31:06;;;;;;;3.58;1.20;;;17.00;99.90;;;;;;5036877;28;20437;-81
2021/04/02 11:33:33;;;;;;;6.10;1.10;;;17.00;99.90;;;;;;5035220;28;20409;-81
2021/04/02 11:36:00;;;;;;;2.92;1.00;;;17.00;99.90;;;;;;5054649;28;20407;-81
2021/04/02 11:38:29;;;;;;;2.15;0.93;;;16.90;99.90;;;;;;5037918;28;20469;-81
2021/04/02 11:40:57;;;;;;;2.60;1.00;;;16.80;99.90;;;;;;5036419;28;20425;-80
2021/04/02 11:43:24;;;;;;;3.15;1.13;;;16.80;99.90;;;;;;5036094;28;20385;-81
2021/04/02 11:45:51;;;;;;;2.65;0.93;;;16.80;99.90;;;;;;5034515;28;20476;-80
2021/04/02 11:48:18;;;;;;;1.60;0.80;;;16.80;99.90;;;;;;5034524;28;20394;-80
2021/04/02 11:50:45;;;;;;;2.13;0.93;;;16.80;99.90;;;;;;5034221;28;20401;-80
2021/04/02 11:53:12;;;;;;;3.28;1.08;;;16.80;99.90;;;;;;5032804;28;20971;-80
2021/04/02 11:55:39;;;;;;;2.95;0.80;;;16.80;99.90;;;;;;5042720;28;20405;-80
2021/04/02 11:58:06;;;;;;;1.67;0.70;;;16.80;99.90;;;;;;5049453;28;20445;-80
2021/04/02 12:00:33;;;;;;;1.92;0.80;;;16.80;99.90;;;;;;5040826;28;22146;-81
2021/04/02 12:03:00;;;;;;;1.53;0.80;;;16.80;99.90;;;;;;5032707;28;20483;-80
2021/04/02 12:05:27;;;;;;;2.53;0.80;;;16.80;99.90;;;;;;5037475;28;20504;-81
2021/04/02 12:07:54;;;;;;;3.72;0.65;;;16.80;99.90;;;;;;5039401;28;20433;-80
2021/04/02 12:10:22;;;;;;;3.28;0.80;;;16.90;99.90;;;;;;5046501;28;20440;-81
2021/04/02 12:12:50;;;;;;;2.45;0.65;;;16.90;99.90;;;;;;5046217;28;20407;-81
2021/04/02 12:15:17;;;;;;;3.50;0.90;;;16.90;99.90;;;;;;5046407;28;20414;-80
2021/04/02 12:17:44;;;;;;;2.08;1.02;;;16.90;99.90;;;;;;5049499;28;20404;-80
2021/04/02 12:20:16;;;;;;;6.00;1.23;;;16.90;99.90;;;;;;5035810;28;20398;-80
2021/04/02 12:22:44;;;;;;;3.30;1.10;;;17.00;99.90;;;;;;5046620;28;20473;-80
2021/04/02 12:25:14;;;;;;;2.08;0.90;;;16.90;99.90;;;;;;5048280;28;20385;-80
2021/04/02 12:27:41;;;;;;;2.78;1.00;;;16.90;99.90;;;;;;5049674;28;20460;-80
2021/04/02 12:30:11;;;;;;;2.97;0.90;;;17.00;99.90;;;;;;5043017;28;20526;-80
2021/04/02 12:32:39;;;;;;;2.70;1.30;;;17.00;99.90;;;;;;5047759;28;20411;-81
2021/04/02 12:35:08;;;;;;;4.13;1.50;;;17.00;99.90;;;;;;5044840;28;20474;-80
2021/04/02 12:37:35;;;;;;;4.13;1.50;;;16.90;99.90;;;;;;5048919;28;20434;-80
2021/04/02 12:40:06;;;;;;;5.10;1.50;;;16.80;99.90;;;;;;5035396;28;20824;-81
2021/04/02 12:42:33;;;;;;;4.78;1.55;;;16.80;99.90;;;;;;5046650;28;20482;-82
2021/04/02 12:45:00;;;;;;;3.67;1.40;;;16.70;99.90;;;;;;5038037;28;20388;-80
2021/04/02 12:47:27;;;;;;;5.55;1.10;;;16.60;99.90;;;;;;5043091;28;20461;-79
2021/04/02 12:49:54;;;;;;;4.78;1.40;;;16.60;99.90;;;;;;5044197;28;20400;-79
2021/04/02 12:52:21;;;;;;;3.40;1.38;;;16.50;99.90;;;;;;5049458;28;20407;-79
2021/04/02 12:54:48;;;;;;;4.28;1.48;;;16.50;99.90;;;;;;5033834;28;20756;-79
2021/04/02 12:57:15;;;;;;;4.25;1.40;;;16.40;99.90;;;;;;5033964;28;20892;-78
2021/04/02 12:59:42;;;;;;;3.95;1.27;;;16.50;99.90;;;;;;5052077;28;20442;-79
2021/04/02 13:02:10;;;;;;;3.22;1.30;;;16.50;99.90;;;;;;5044505;28;20411;-79
2021/04/02 13:04:38;;;;;;;4.40;1.70;;;16.50;99.90;;;;;;5047766;28;20380;-79